sensor_id;sensor_type;location;lat;lon;timestamp;P1;durP1;ratioP1;P2;durP2;ratioP2
56339;SDS011;42243;42.644;23.366;2023-05-21T00:00:45;11.20;;;7.50;;
56339;SDS011;42243;42.644;23.366;2023-05-21T00:03:11;12.35;;;7.43;;
56339;SDS011;42243;42.644;23.366;2023-05-21T00:05:38;15.38;;;7.43;;
56339;SDS011;42243;42.644;23.366;2023-05-21T00:08:04;12.90;;;7.20;;
56339;SDS011;42243;42.644;23.366;2023-05-21T00:10:30;9.18;;;6.72;;
56339;SDS011;42243;42.644;23.366;2023-05-21T00:12:56;10.68;;;7.35;;
56339;SDS011;42243;42.644;23.366;2023-05-21T00:15:21;14.65;;;7.15;;
56339;SDS011;42243;42.644;23.366;2023-05-21T00:17:46;11.15;;;7.55;;
56339;SDS011;42243;42.644;23.366;2023-05-21T00:20:12;14.40;;;7.25;;
56339;SDS011;42243;42.644;23.366;2023-05-21T00:22:37;13.30;;;7.38;;
56339;SDS011;42243;42.644;23.366;2023-05-21T00:25:04;11.55;;;6.78;;
56339;SDS011;42243;42.644;23.366;2023-05-21T00:27:30;12.13;;;7.60;;
56339;SDS011;42243;42.644;23.366;2023-05-21T00:29:56;10.38;;;7.35;;
56339;SDS011;42243;42.644;23.366;2023-05-21T00:32:22;9.05;;;7.10;;
56339;SDS011;42243;42.644;23.366;2023-05-21T00:34:47;14.90;;;7.53;;
56339;SDS011;42243;42.644;23.366;2023-05-21T00:37:12;10.13;;;7.35;;
56339;SDS011;42243;42.644;23.366;2023-05-21T00:39:39;11.48;;;7.18;;
56339;SDS011;42243;42.644;23.366;2023-05-21T00:42:05;12.65;;;7.25;;
56339;SDS011;42243;42.644;23.366;2023-05-21T00:44:30;10.68;;;7.80;;
56339;SDS011;42243;42.644;23.366;2023-05-21T00:47:02;14.77;;;7.63;;
56339;SDS011;42243;42.644;23.366;2023-05-21T00:49:28;10.40;;;7.22;;
56339;SDS011;42243;42.644;23.366;2023-05-21T00:51:54;9.55;;;6.85;;
56339;SDS011;42243;42.644;23.366;2023-05-21T00:54:20;10.95;;;7.60;;
56339;SDS011;42243;42.644;23.366;2023-05-21T00:56:47;10.80;;;6.97;;
56339;SDS011;42243;42.644;23.366;2023-05-21T00:59:16;13.02;;;7.25;;
56339;SDS011;42243;42.644;23.366;2023-05-21T01:01:42;8.32;;;6.90;;
56339;SDS011;42243;42.644;23.366;2023-05-21T01:04:09;9.82;;;7.43;;
56339;SDS011;42243;42.644;23.366;2023-05-21T01:06:35;10.18;;;6.95;;
56339;SDS011;42243;42.644;23.366;2023-05-21T01:09:02;14.80;;;6.90;;
56339;SDS011;42243;42.644;23.366;2023-05-21T01:11:45;11.80;;;8.02;;
56339;SDS011;42243;42.644;23.366;2023-05-21T01:14:13;12.80;;;7.78;;
56339;SDS011;42243;42.644;23.366;2023-05-21T01:16:41;12.38;;;9.38;;
56339;SDS011;42243;42.644;23.366;2023-05-21T01:19:12;13.13;;;9.27;;
56339;SDS011;42243;42.644;23.366;2023-05-21T01:21:41;12.32;;;9.38;;
56339;SDS011;42243;42.644;23.366;2023-05-21T01:24:10;20.25;;;9.00;;
56339;SDS011;42243;42.644;23.366;2023-05-21T01:26:35;15.00;;;9.13;;
56339;SDS011;42243;42.644;23.366;2023-05-21T01:29:06;17.88;;;9.55;;
56339;SDS011;42243;42.644;23.366;2023-05-21T01:31:52;15.65;;;10.00;;
56339;SDS011;42243;42.644;23.366;2023-05-21T01:34:39;16.77;;;9.35;;
56339;SDS011;42243;42.644;23.366;2023-05-21T01:37:12;12.77;;;9.15;;
56339;SDS011;42243;42.644;23.366;2023-05-21T01:39:42;16.52;;;9.48;;
56339;SDS011;42243;42.644;23.366;2023-05-21T01:42:12;16.80;;;9.95;;
56339;SDS011;42243;42.644;23.366;2023-05-21T01:44:40;14.82;;;9.45;;
56339;SDS011;42243;42.644;23.366;2023-05-21T01:47:06;11.75;;;8.95;;
56339;SDS011;42243;42.644;23.366;2023-05-21T01:49:32;14.85;;;9.35;;
56339;SDS011;42243;42.644;23.366;2023-05-21T01:51:58;12.40;;;9.50;;
56339;SDS011;42243;42.644;23.366;2023-05-21T01:54:24;14.38;;;8.88;;
56339;SDS011;42243;42.644;23.366;2023-05-21T01:56:49;14.10;;;9.00;;
56339;SDS011;42243;42.644;23.366;2023-05-21T01:59:17;13.02;;;9.57;;
56339;SDS011;42243;42.644;23.366;2023-05-21T02:01:44;21.58;;;10.27;;
56339;SDS011;42243;42.644;23.366;2023-05-21T02:04:09;19.38;;;9.70;;
56339;SDS011;42243;42.644;23.366;2023-05-21T02:06:35;15.52;;;9.68;;
56339;SDS011;42243;42.644;23.366;2023-05-21T02:09:01;19.48;;;9.43;;
56339;SDS011;42243;42.644;23.366;2023-05-21T02:11:27;13.50;;;9.48;;
56339;SDS011;42243;42.644;23.366;2023-05-21T02:13:52;18.42;;;10.23;;
56339;SDS011;42243;42.644;23.366;2023-05-21T02:16:18;18.83;;;9.30;;
56339;SDS011;42243;42.644;23.366;2023-05-21T02:18:46;13.57;;;9.65;;
56339;SDS011;42243;42.644;23.366;2023-05-21T02:21:15;14.77;;;9.52;;
56339;SDS011;42243;42.644;23.366;2023-05-21T02:23:41;22.58;;;10.45;;
56339;SDS011;42243;42.644;23.366;2023-05-21T02:26:06;19.17;;;10.35;;
56339;SDS011;42243;42.644;23.366;2023-05-21T02:28:32;15.35;;;10.27;;
56339;SDS011;42243;42.644;23.366;2023-05-21T02:30:58;14.68;;;10.13;;
56339;SDS011;42243;42.644;23.366;2023-05-21T02:33:23;17.38;;;11.10;;
56339;SDS011;42243;42.644;23.366;2023-05-21T02:35:50;16.20;;;10.20;;
56339;SDS011;42243;42.644;23.366;2023-05-21T02:38:15;16.55;;;9.82;;
56339;SDS011;42243;42.644;23.366;2023-05-21T02:40:44;13.40;;;10.43;;
56339;SDS011;42243;42.644;23.366;2023-05-21T02:43:10;15.07;;;10.38;;
56339;SDS011;42243;42.644;23.366;2023-05-21T02:45:35;17.00;;;10.05;;
56339;SDS011;42243;42.644;23.366;2023-05-21T02:48:01;13.30;;;9.90;;
56339;SDS011;42243;42.644;23.366;2023-05-21T02:50:26;16.70;;;10.88;;
56339;SDS011;42243;42.644;23.366;2023-05-21T02:52:51;17.27;;;10.55;;
56339;SDS011;42243;42.644;23.366;2023-05-21T02:55:17;16.13;;;10.07;;
56339;SDS011;42243;42.644;23.366;2023-05-21T02:57:42;11.77;;;10.10;;
56339;SDS011;42243;42.644;23.366;2023-05-21T03:00:08;16.27;;;10.18;;
56339;SDS011;42243;42.644;23.366;2023-05-21T03:02:35;13.68;;;9.52;;
56339;SDS011;42243;42.644;23.366;2023-05-21T03:05:00;17.30;;;10.38;;
56339;SDS011;42243;42.644;23.366;2023-05-21T03:07:26;20.88;;;10.50;;
56339;SDS011;42243;42.644;23.366;2023-05-21T03:09:52;15.88;;;10.20;;
56339;SDS011;42243;42.644;23.366;2023-05-21T03:12:17;17.58;;;10.30;;
56339;SDS011;42243;42.644;23.366;2023-05-21T03:14:42;15.70;;;10.35;;
56339;SDS011;42243;42.644;23.366;2023-05-21T03:17:10;15.57;;;10.32;;
56339;SDS011;42243;42.644;23.366;2023-05-21T03:19:39;12.65;;;9.63;;
56339;SDS011;42243;42.644;23.366;2023-05-21T03:22:05;15.63;;;9.98;;
56339;SDS011;42243;42.644;23.366;2023-05-21T03:24:31;17.35;;;10.60;;
56339;SDS011;42243;42.644;23.366;2023-05-21T03:27:00;16.15;;;10.98;;
56339;SDS011;42243;42.644;23.366;2023-05-21T03:29:25;16.67;;;10.88;;
56339;SDS011;42243;42.644;23.366;2023-05-21T03:31:52;18.65;;;11.40;;
56339;SDS011;42243;42.644;23.366;2023-05-21T03:34:18;16.13;;;10.48;;
56339;SDS011;42243;42.644;23.366;2023-05-21T03:36:44;13.90;;;10.40;;
56339;SDS011;42243;42.644;23.366;2023-05-21T03:39:10;17.15;;;11.02;;
56339;SDS011;42243;42.644;23.366;2023-05-21T03:41:35;18.85;;;10.68;;
56339;SDS011;42243;42.644;23.366;2023-05-21T03:44:01;16.05;;;11.15;;
56339;SDS011;42243;42.644;23.366;2023-05-21T03:46:26;15.38;;;10.50;;
56339;SDS011;42243;42.644;23.366;2023-05-21T03:48:52;14.98;;;11.18;;
56339;SDS011;42243;42.644;23.366;2023-05-21T03:51:17;19.88;;;11.00;;
56339;SDS011;42243;42.644;23.366;2023-05-21T03:53:44;20.30;;;10.18;;
56339;SDS011;42243;42.644;23.366;2023-05-21T03:56:09;18.13;;;10.82;;
56339;SDS011;42243;42.644;23.366;2023-05-21T03:58:35;16.00;;;10.18;;
56339;SDS011;42243;42.644;23.366;2023-05-21T04:01:00;15.93;;;10.40;;
56339;SDS011;42243;42.644;23.366;2023-05-21T04:03:28;18.63;;;10.80;;
56339;SDS011;42243;42.644;23.366;2023-05-21T04:05:54;14.48;;;10.40;;
56339;SDS011;42243;42.644;23.366;2023-05-21T04:08:20;14.43;;;10.65;;
56339;SDS011;42243;42.644;23.366;2023-05-21T04:10:45;13.32;;;9.50;;
56339;SDS011;42243;42.644;23.366;2023-05-21T04:13:11;14.60;;;9.55;;
56339;SDS011;42243;42.644;23.366;2023-05-21T04:15:36;13.52;;;9.77;;
56339;SDS011;42243;42.644;23.366;2023-05-21T04:18:02;17.08;;;10.02;;
56339;SDS011;42243;42.644;23.366;2023-05-21T04:20:28;14.18;;;9.85;;
56339;SDS011;42243;42.644;23.366;2023-05-21T04:22:54;11.52;;;10.02;;
56339;SDS011;42243;42.644;23.366;2023-05-21T04:25:19;15.57;;;10.07;;
56339;SDS011;42243;42.644;23.366;2023-05-21T04:27:46;15.98;;;9.38;;
56339;SDS011;42243;42.644;23.366;2023-05-21T04:30:12;14.35;;;9.50;;
56339;SDS011;42243;42.644;23.366;2023-05-21T04:32:37;15.05;;;10.02;;
56339;SDS011;42243;42.644;23.366;2023-05-21T04:35:03;11.85;;;9.90;;
56339;SDS011;42243;42.644;23.366;2023-05-21T04:37:29;13.40;;;10.05;;
56339;SDS011;42243;42.644;23.366;2023-05-21T04:39:56;17.13;;;9.88;;
56339;SDS011;42243;42.644;23.366;2023-05-21T04:42:22;13.25;;;10.52;;
56339;SDS011;42243;42.644;23.366;2023-05-21T04:44:48;13.93;;;9.25;;
56339;SDS011;42243;42.644;23.366;2023-05-21T04:47:14;15.27;;;10.25;;
56339;SDS011;42243;42.644;23.366;2023-05-21T04:49:40;17.63;;;11.30;;
56339;SDS011;42243;42.644;23.366;2023-05-21T04:52:05;18.85;;;11.77;;
56339;SDS011;42243;42.644;23.366;2023-05-21T04:54:32;22.00;;;12.43;;
56339;SDS011;42243;42.644;23.366;2023-05-21T04:56:57;17.55;;;11.85;;
56339;SDS011;42243;42.644;23.366;2023-05-21T04:59:23;17.90;;;12.10;;
56339;SDS011;42243;42.644;23.366;2023-05-21T05:01:48;22.73;;;11.57;;
56339;SDS011;42243;42.644;23.366;2023-05-21T05:04:13;13.63;;;7.63;;
56339;SDS011;42243;42.644;23.366;2023-05-21T05:06:39;14.70;;;9.48;;
56339;SDS011;42243;42.644;23.366;2023-05-21T05:09:04;18.15;;;9.55;;
56339;SDS011;42243;42.644;23.366;2023-05-21T05:11:30;12.57;;;7.13;;
56339;SDS011;42243;42.644;23.366;2023-05-21T05:13:55;13.75;;;9.07;;
56339;SDS011;42243;42.644;23.366;2023-05-21T05:16:21;17.92;;;8.90;;
56339;SDS011;42243;42.644;23.366;2023-05-21T05:18:53;14.05;;;8.65;;
56339;SDS011;42243;42.644;23.366;2023-05-21T05:21:19;11.10;;;6.75;;
56339;SDS011;42243;42.644;23.366;2023-05-21T05:23:46;19.02;;;7.75;;
56339;SDS011;42243;42.644;23.366;2023-05-21T05:26:11;15.00;;;7.50;;
56339;SDS011;42243;42.644;23.366;2023-05-21T05:28:37;9.52;;;4.70;;
56339;SDS011;42243;42.644;23.366;2023-05-21T05:31:02;9.27;;;4.90;;
56339;SDS011;42243;42.644;23.366;2023-05-21T05:33:28;9.13;;;5.10;;
56339;SDS011;42243;42.644;23.366;2023-05-21T05:35:53;7.93;;;5.03;;
56339;SDS011;42243;42.644;23.366;2023-05-21T05:38:18;12.38;;;4.63;;
56339;SDS011;42243;42.644;23.366;2023-05-21T05:40:44;7.65;;;4.45;;
56339;SDS011;42243;42.644;23.366;2023-05-21T05:43:09;15.15;;;4.90;;
56339;SDS011;42243;42.644;23.366;2023-05-21T05:45:35;11.88;;;4.03;;
56339;SDS011;42243;42.644;23.366;2023-05-21T05:48:00;6.68;;;4.10;;
56339;SDS011;42243;42.644;23.366;2023-05-21T05:50:26;8.55;;;4.80;;
56339;SDS011;42243;42.644;23.366;2023-05-21T05:52:51;9.32;;;4.35;;
56339;SDS011;42243;42.644;23.366;2023-05-21T05:55:17;8.40;;;4.00;;
56339;SDS011;42243;42.644;23.366;2023-05-21T05:57:42;7.00;;;4.28;;
56339;SDS011;42243;42.644;23.366;2023-05-21T06:00:08;10.27;;;3.72;;
56339;SDS011;42243;42.644;23.366;2023-05-21T06:02:37;6.80;;;4.25;;
56339;SDS011;42243;42.644;23.366;2023-05-21T06:05:02;6.75;;;4.22;;
56339;SDS011;42243;42.644;23.366;2023-05-21T06:07:30;9.05;;;4.00;;
56339;SDS011;42243;42.644;23.366;2023-05-21T06:09:56;8.90;;;4.20;;
56339;SDS011;42243;42.644;23.366;2023-05-21T06:12:21;6.88;;;4.05;;
56339;SDS011;42243;42.644;23.366;2023-05-21T06:14:47;12.23;;;4.40;;
56339;SDS011;42243;42.644;23.366;2023-05-21T06:17:13;8.85;;;4.30;;
56339;SDS011;42243;42.644;23.366;2023-05-21T06:19:38;11.18;;;4.18;;
56339;SDS011;42243;42.644;23.366;2023-05-21T06:22:04;7.55;;;4.55;;
56339;SDS011;42243;42.644;23.366;2023-05-21T06:24:29;7.85;;;4.10;;
56339;SDS011;42243;42.644;23.366;2023-05-21T06:26:55;7.28;;;3.95;;
56339;SDS011;42243;42.644;23.366;2023-05-21T06:29:20;5.38;;;3.70;;
56339;SDS011;42243;42.644;23.366;2023-05-21T06:31:46;10.60;;;4.30;;
56339;SDS011;42243;42.644;23.366;2023-05-21T06:34:12;7.22;;;3.97;;
56339;SDS011;42243;42.644;23.366;2023-05-21T06:36:38;9.88;;;4.00;;
56339;SDS011;42243;42.644;23.366;2023-05-21T06:39:03;11.38;;;4.43;;
56339;SDS011;42243;42.644;23.366;2023-05-21T06:41:28;8.90;;;4.22;;
56339;SDS011;42243;42.644;23.366;2023-05-21T06:43:54;9.07;;;4.07;;
56339;SDS011;42243;42.644;23.366;2023-05-21T06:46:20;7.50;;;3.95;;
56339;SDS011;42243;42.644;23.366;2023-05-21T06:48:46;9.73;;;4.25;;
56339;SDS011;42243;42.644;23.366;2023-05-21T06:51:12;10.18;;;4.18;;
56339;SDS011;42243;42.644;23.366;2023-05-21T06:53:37;14.00;;;4.13;;
56339;SDS011;42243;42.644;23.366;2023-05-21T06:56:03;13.75;;;4.70;;
56339;SDS011;42243;42.644;23.366;2023-05-21T06:58:28;9.02;;;4.00;;
56339;SDS011;42243;42.644;23.366;2023-05-21T07:00:58;9.25;;;3.78;;
56339;SDS011;42243;42.644;23.366;2023-05-21T07:03:25;5.68;;;4.38;;
56339;SDS011;42243;42.644;23.366;2023-05-21T07:05:51;9.90;;;3.80;;
56339;SDS011;42243;42.644;23.366;2023-05-21T07:08:17;5.50;;;4.00;;
56339;SDS011;42243;42.644;23.366;2023-05-21T07:10:43;8.82;;;3.63;;
56339;SDS011;42243;42.644;23.366;2023-05-21T07:13:10;21.25;;;4.97;;
56339;SDS011;42243;42.644;23.366;2023-05-21T07:15:35;9.43;;;4.05;;
56339;SDS011;42243;42.644;23.366;2023-05-21T07:18:01;8.27;;;4.72;;
56339;SDS011;42243;42.644;23.366;2023-05-21T07:20:27;9.32;;;4.30;;
56339;SDS011;42243;42.644;23.366;2023-05-21T07:22:52;13.00;;;4.30;;
56339;SDS011;42243;42.644;23.366;2023-05-21T07:25:18;7.40;;;4.03;;
56339;SDS011;42243;42.644;23.366;2023-05-21T07:27:43;7.50;;;4.25;;
56339;SDS011;42243;42.644;23.366;2023-05-21T07:30:09;7.55;;;3.88;;
56339;SDS011;42243;42.644;23.366;2023-05-21T07:32:34;6.40;;;4.03;;
56339;SDS011;42243;42.644;23.366;2023-05-21T07:35:00;7.35;;;3.90;;
56339;SDS011;42243;42.644;23.366;2023-05-21T07:37:26;6.20;;;4.30;;
56339;SDS011;42243;42.644;23.366;2023-05-21T07:39:51;8.68;;;4.40;;
56339;SDS011;42243;42.644;23.366;2023-05-21T07:42:18;8.90;;;4.20;;
56339;SDS011;42243;42.644;23.366;2023-05-21T07:44:43;10.20;;;3.80;;
56339;SDS011;42243;42.644;23.366;2023-05-21T07:47:08;5.75;;;4.07;;
56339;SDS011;42243;42.644;23.366;2023-05-21T07:49:34;6.00;;;4.13;;
56339;SDS011;42243;42.644;23.366;2023-05-21T07:51:59;12.02;;;4.32;;
56339;SDS011;42243;42.644;23.366;2023-05-21T07:54:25;6.72;;;3.75;;
56339;SDS011;42243;42.644;23.366;2023-05-21T07:56:50;10.20;;;4.43;;
56339;SDS011;42243;42.644;23.366;2023-05-21T07:59:15;6.75;;;3.95;;
56339;SDS011;42243;42.644;23.366;2023-05-21T08:01:41;6.78;;;3.67;;
56339;SDS011;42243;42.644;23.366;2023-05-21T08:04:07;8.43;;;3.90;;
56339;SDS011;42243;42.644;23.366;2023-05-21T08:06:32;7.10;;;3.70;;
56339;SDS011;42243;42.644;23.366;2023-05-21T08:09:01;7.20;;;4.15;;
56339;SDS011;42243;42.644;23.366;2023-05-21T08:11:27;8.93;;;3.78;;
56339;SDS011;42243;42.644;23.366;2023-05-21T08:13:53;9.20;;;3.58;;
56339;SDS011;42243;42.644;23.366;2023-05-21T08:16:19;8.55;;;4.05;;
56339;SDS011;42243;42.644;23.366;2023-05-21T08:18:47;10.07;;;3.78;;
56339;SDS011;42243;42.644;23.366;2023-05-21T08:21:12;14.07;;;3.78;;
56339;SDS011;42243;42.644;23.366;2023-05-21T08:23:38;16.33;;;3.83;;
56339;SDS011;42243;42.644;23.366;2023-05-21T08:26:03;5.53;;;3.75;;
56339;SDS011;42243;42.644;23.366;2023-05-21T08:28:29;6.78;;;3.97;;
56339;SDS011;42243;42.644;23.366;2023-05-21T08:30:54;6.28;;;4.20;;
56339;SDS011;42243;42.644;23.366;2023-05-21T08:33:20;8.68;;;3.90;;
56339;SDS011;42243;42.644;23.366;2023-05-21T08:35:45;9.85;;;3.85;;
56339;SDS011;42243;42.644;23.366;2023-05-21T08:38:11;5.80;;;3.70;;
56339;SDS011;42243;42.644;23.366;2023-05-21T08:40:36;10.82;;;3.97;;
56339;SDS011;42243;42.644;23.366;2023-05-21T08:43:01;7.57;;;3.45;;
56339;SDS011;42243;42.644;23.366;2023-05-21T08:45:27;15.65;;;3.80;;
56339;SDS011;42243;42.644;23.366;2023-05-21T08:48:02;10.15;;;3.80;;
56339;SDS011;42243;42.644;23.366;2023-05-21T08:50:28;12.07;;;4.05;;
56339;SDS011;42243;42.644;23.366;2023-05-21T08:52:55;10.57;;;3.03;;
56339;SDS011;42243;42.644;23.366;2023-05-21T08:55:22;10.70;;;3.80;;
56339;SDS011;42243;42.644;23.366;2023-05-21T08:57:48;6.00;;;3.60;;
56339;SDS011;42243;42.644;23.366;2023-05-21T09:00:14;13.52;;;4.57;;
56339;SDS011;42243;42.644;23.366;2023-05-21T09:02:40;5.35;;;3.63;;
56339;SDS011;42243;42.644;23.366;2023-05-21T09:05:07;4.50;;;3.53;;
56339;SDS011;42243;42.644;23.366;2023-05-21T09:07:37;8.10;;;3.90;;
56339;SDS011;42243;42.644;23.366;2023-05-21T09:10:07;9.10;;;3.80;;
56339;SDS011;42243;42.644;23.366;2023-05-21T09:12:36;11.23;;;3.83;;
56339;SDS011;42243;42.644;23.366;2023-05-21T09:15:02;9.88;;;3.97;;
56339;SDS011;42243;42.644;23.366;2023-05-21T09:17:28;10.38;;;3.80;;
56339;SDS011;42243;42.644;23.366;2023-05-21T09:20:03;8.35;;;3.67;;
56339;SDS011;42243;42.644;23.366;2023-05-21T09:22:42;7.97;;;3.63;;
56339;SDS011;42243;42.644;23.366;2023-05-21T09:25:09;6.93;;;3.42;;
56339;SDS011;42243;42.644;23.366;2023-05-21T09:27:36;9.88;;;3.58;;
56339;SDS011;42243;42.644;23.366;2023-05-21T09:30:02;9.20;;;3.50;;
56339;SDS011;42243;42.644;23.366;2023-05-21T09:32:29;7.03;;;3.20;;
56339;SDS011;42243;42.644;23.366;2023-05-21T09:34:54;3.55;;;2.80;;
56339;SDS011;42243;42.644;23.366;2023-05-21T09:37:20;8.55;;;3.35;;
56339;SDS011;42243;42.644;23.366;2023-05-21T09:39:46;6.82;;;3.42;;
56339;SDS011;42243;42.644;23.366;2023-05-21T09:42:12;5.20;;;3.22;;
56339;SDS011;42243;42.644;23.366;2023-05-21T09:44:39;6.97;;;3.40;;
56339;SDS011;42243;42.644;23.366;2023-05-21T09:47:07;7.18;;;3.15;;
56339;SDS011;42243;42.644;23.366;2023-05-21T09:49:33;5.38;;;3.35;;
56339;SDS011;42243;42.644;23.366;2023-05-21T09:52:01;9.75;;;3.10;;
56339;SDS011;42243;42.644;23.366;2023-05-21T09:54:31;9.95;;;3.75;;
56339;SDS011;42243;42.644;23.366;2023-05-21T09:56:59;6.53;;;3.15;;
56339;SDS011;42243;42.644;23.366;2023-05-21T09:59:34;10.02;;;3.22;;
56339;SDS011;42243;42.644;23.366;2023-05-21T10:02:02;7.15;;;3.10;;
56339;SDS011;42243;42.644;23.366;2023-05-21T10:04:43;7.85;;;3.08;;
56339;SDS011;42243;42.644;23.366;2023-05-21T10:07:08;15.35;;;3.80;;
56339;SDS011;42243;42.644;23.366;2023-05-21T10:09:34;7.90;;;3.30;;
56339;SDS011;42243;42.644;23.366;2023-05-21T10:11:59;7.18;;;3.53;;
56339;SDS011;42243;42.644;23.366;2023-05-21T10:14:26;12.15;;;3.70;;
56339;SDS011;42243;42.644;23.366;2023-05-21T10:16:55;5.47;;;3.28;;
56339;SDS011;42243;42.644;23.366;2023-05-21T10:19:21;5.88;;;3.10;;
56339;SDS011;42243;42.644;23.366;2023-05-21T10:21:48;6.60;;;3.35;;
56339;SDS011;42243;42.644;23.366;2023-05-21T10:24:16;6.50;;;3.40;;
56339;SDS011;42243;42.644;23.366;2023-05-21T10:26:42;8.65;;;3.67;;
56339;SDS011;42243;42.644;23.366;2023-05-21T10:29:08;6.65;;;3.67;;
56339;SDS011;42243;42.644;23.366;2023-05-21T10:31:34;6.68;;;3.30;;
56339;SDS011;42243;42.644;23.366;2023-05-21T10:34:00;6.35;;;3.08;;
56339;SDS011;42243;42.644;23.366;2023-05-21T10:36:29;6.78;;;3.30;;
56339;SDS011;42243;42.644;23.366;2023-05-21T10:38:56;5.65;;;3.60;;
56339;SDS011;42243;42.644;23.366;2023-05-21T10:41:24;7.88;;;3.60;;
56339;SDS011;42243;42.644;23.366;2023-05-21T10:44:04;6.90;;;3.58;;
56339;SDS011;42243;42.644;23.366;2023-05-21T11:00:33;8.88;;;3.70;;
56339;SDS011;42243;42.644;23.366;2023-05-21T11:02:59;7.90;;;4.22;;
56339;SDS011;42243;42.644;23.366;2023-05-21T11:05:37;7.47;;;3.53;;
56339;SDS011;42243;42.644;23.366;2023-05-21T11:08:21;6.43;;;4.05;;
56339;SDS011;42243;42.644;23.366;2023-05-21T11:10:51;6.30;;;3.80;;
56339;SDS011;42243;42.644;23.366;2023-05-21T11:13:18;5.93;;;3.72;;
56339;SDS011;42243;42.644;23.366;2023-05-21T11:21:09;6.07;;;3.60;;
56339;SDS011;42243;42.644;23.366;2023-05-21T11:23:52;6.97;;;3.38;;
56339;SDS011;42243;42.644;23.366;2023-05-21T11:26:18;6.68;;;3.67;;
56339;SDS011;42243;42.644;23.366;2023-05-21T11:28:49;6.50;;;3.85;;
56339;SDS011;42243;42.644;23.366;2023-05-21T11:31:30;7.78;;;3.70;;
56339;SDS011;42243;42.644;23.366;2023-05-21T11:34:18;14.48;;;3.90;;
56339;SDS011;42243;42.644;23.366;2023-05-21T11:36:46;9.52;;;3.67;;
56339;SDS011;42243;42.644;23.366;2023-05-21T11:47:12;7.55;;;3.50;;
56339;SDS011;42243;42.644;23.366;2023-05-21T11:49:47;9.85;;;3.97;;
56339;SDS011;42243;42.644;23.366;2023-05-21T11:52:13;8.05;;;3.55;;
56339;SDS011;42243;42.644;23.366;2023-05-21T11:54:41;5.05;;;3.47;;
56339;SDS011;42243;42.644;23.366;2023-05-21T11:57:10;9.75;;;3.88;;
56339;SDS011;42243;42.644;23.366;2023-05-21T11:59:36;8.77;;;3.80;;
56339;SDS011;42243;42.644;23.366;2023-05-21T12:02:03;7.35;;;4.25;;
56339;SDS011;42243;42.644;23.366;2023-05-21T12:04:29;9.43;;;4.38;;
56339;SDS011;42243;42.644;23.366;2023-05-21T12:06:55;15.70;;;4.07;;
56339;SDS011;42243;42.644;23.366;2023-05-21T12:09:22;9.80;;;4.40;;
56339;SDS011;42243;42.644;23.366;2023-05-21T12:11:48;7.57;;;4.30;;
56339;SDS011;42243;42.644;23.366;2023-05-21T12:14:14;12.50;;;4.45;;
56339;SDS011;42243;42.644;23.366;2023-05-21T12:16:40;9.90;;;4.45;;
56339;SDS011;42243;42.644;23.366;2023-05-21T12:19:06;10.52;;;4.57;;
56339;SDS011;42243;42.644;23.366;2023-05-21T12:21:31;9.85;;;4.55;;
56339;SDS011;42243;42.644;23.366;2023-05-21T12:23:57;9.00;;;4.18;;
56339;SDS011;42243;42.644;23.366;2023-05-21T12:26:23;8.95;;;4.15;;
56339;SDS011;42243;42.644;23.366;2023-05-21T12:28:53;6.07;;;4.28;;
56339;SDS011;42243;42.644;23.366;2023-05-21T12:31:20;11.38;;;4.05;;
56339;SDS011;42243;42.644;23.366;2023-05-21T12:33:50;9.93;;;4.28;;
56339;SDS011;42243;42.644;23.366;2023-05-21T12:36:24;10.25;;;4.38;;
56339;SDS011;42243;42.644;23.366;2023-05-21T12:38:51;5.95;;;4.00;;
56339;SDS011;42243;42.644;23.366;2023-05-21T12:41:17;8.70;;;4.25;;
56339;SDS011;42243;42.644;23.366;2023-05-21T12:43:43;8.43;;;4.15;;
56339;SDS011;42243;42.644;23.366;2023-05-21T12:46:11;6.78;;;4.18;;
56339;SDS011;42243;42.644;23.366;2023-05-21T12:48:46;10.68;;;3.95;;
56339;SDS011;42243;42.644;23.366;2023-05-21T12:51:12;9.85;;;4.53;;
56339;SDS011;42243;42.644;23.366;2023-05-21T12:53:40;10.55;;;4.15;;
56339;SDS011;42243;42.644;23.366;2023-05-21T12:56:07;12.63;;;4.47;;
56339;SDS011;42243;42.644;23.366;2023-05-21T12:58:35;9.70;;;4.22;;
56339;SDS011;42243;42.644;23.366;2023-05-21T13:01:11;7.78;;;4.50;;
56339;SDS011;42243;42.644;23.366;2023-05-21T13:03:37;9.00;;;3.63;;
56339;SDS011;42243;42.644;23.366;2023-05-21T13:06:06;5.72;;;3.83;;
56339;SDS011;42243;42.644;23.366;2023-05-21T13:08:32;8.07;;;3.72;;
56339;SDS011;42243;42.644;23.366;2023-05-21T13:11:03;11.23;;;4.22;;
56339;SDS011;42243;42.644;23.366;2023-05-21T13:13:29;8.88;;;3.90;;
56339;SDS011;42243;42.644;23.366;2023-05-21T13:15:54;10.30;;;4.03;;
56339;SDS011;42243;42.644;23.366;2023-05-21T13:18:20;9.60;;;3.85;;
56339;SDS011;42243;42.644;23.366;2023-05-21T13:20:46;10.02;;;4.18;;
56339;SDS011;42243;42.644;23.366;2023-05-21T13:23:15;19.98;;;4.40;;
56339;SDS011;42243;42.644;23.366;2023-05-21T13:25:40;6.68;;;3.97;;
56339;SDS011;42243;42.644;23.366;2023-05-21T13:28:06;10.65;;;4.75;;
56339;SDS011;42243;42.644;23.366;2023-05-21T13:30:34;6.38;;;3.95;;
56339;SDS011;42243;42.644;23.366;2023-05-21T13:33:00;14.20;;;4.10;;
56339;SDS011;42243;42.644;23.366;2023-05-21T13:35:26;9.35;;;3.80;;
56339;SDS011;42243;42.644;23.366;2023-05-21T13:37:51;7.20;;;4.03;;
56339;SDS011;42243;42.644;23.366;2023-05-21T13:40:17;9.52;;;3.72;;
56339;SDS011;42243;42.644;23.366;2023-05-21T13:42:43;8.98;;;3.85;;
56339;SDS011;42243;42.644;23.366;2023-05-21T13:45:10;10.80;;;3.92;;
56339;SDS011;42243;42.644;23.366;2023-05-21T13:47:37;9.05;;;4.20;;
56339;SDS011;42243;42.644;23.366;2023-05-21T13:50:02;14.65;;;3.70;;
56339;SDS011;42243;42.644;23.366;2023-05-21T13:52:28;7.15;;;3.45;;
56339;SDS011;42243;42.644;23.366;2023-05-21T13:54:53;8.57;;;3.80;;
56339;SDS011;42243;42.644;23.366;2023-05-21T13:57:19;7.70;;;3.80;;
56339;SDS011;42243;42.644;23.366;2023-05-21T13:59:45;14.77;;;4.57;;
56339;SDS011;42243;42.644;23.366;2023-05-21T14:02:10;11.43;;;4.13;;
56339;SDS011;42243;42.644;23.366;2023-05-21T14:04:36;7.72;;;4.07;;
56339;SDS011;42243;42.644;23.366;2023-05-21T14:07:01;6.97;;;4.10;;
56339;SDS011;42243;42.644;23.366;2023-05-21T14:09:27;9.18;;;4.10;;
56339;SDS011;42243;42.644;23.366;2023-05-21T14:11:54;13.45;;;4.25;;
56339;SDS011;42243;42.644;23.366;2023-05-21T14:14:21;9.68;;;4.55;;
56339;SDS011;42243;42.644;23.366;2023-05-21T14:16:47;9.32;;;4.28;;
56339;SDS011;42243;42.644;23.366;2023-05-21T14:19:13;7.50;;;4.05;;
56339;SDS011;42243;42.644;23.366;2023-05-21T14:21:38;6.60;;;4.10;;
56339;SDS011;42243;42.644;23.366;2023-05-21T14:24:04;6.97;;;3.60;;
56339;SDS011;42243;42.644;23.366;2023-05-21T14:26:29;11.30;;;3.90;;
56339;SDS011;42243;42.644;23.366;2023-05-21T14:28:55;5.38;;;3.67;;
56339;SDS011;42243;42.644;23.366;2023-05-21T14:31:20;8.90;;;4.10;;
56339;SDS011;42243;42.644;23.366;2023-05-21T14:33:47;7.53;;;4.03;;
56339;SDS011;42243;42.644;23.366;2023-05-21T14:36:13;10.05;;;4.32;;
56339;SDS011;42243;42.644;23.366;2023-05-21T14:38:39;9.77;;;4.05;;
56339;SDS011;42243;42.644;23.366;2023-05-21T14:41:04;7.22;;;4.20;;
56339;SDS011;42243;42.644;23.366;2023-05-21T14:43:31;15.75;;;4.47;;
56339;SDS011;42243;42.644;23.366;2023-05-21T14:45:56;15.02;;;4.88;;
56339;SDS011;42243;42.644;23.366;2023-05-21T14:48:22;11.02;;;4.20;;
56339;SDS011;42243;42.644;23.366;2023-05-21T14:50:48;8.43;;;4.82;;